createdAt,value
2023-04-20T00:02:08.066Z,3.30
2023-04-20T00:04:34.885Z,2.90
2023-04-20T00:07:01.735Z,3.10
2023-04-20T00:09:28.801Z,2.70
2023-04-20T00:11:55.613Z,2.40
2023-04-20T00:14:22.713Z,2.63
2023-04-20T00:16:49.721Z,3.47
2023-04-20T00:19:16.923Z,2.40
2023-04-20T00:21:44.096Z,2.42
2023-04-20T00:24:11.130Z,2.50
2023-04-20T00:26:38.202Z,4.57
2023-04-20T00:29:05.672Z,2.95
2023-04-20T00:31:33.475Z,2.80
2023-04-20T00:34:00.465Z,2.83
2023-04-20T00:36:27.557Z,2.72
2023-04-20T00:38:54.982Z,2.70
2023-04-20T00:41:22.061Z,2.70
2023-04-20T00:43:52.774Z,2.45
2023-04-20T00:46:21.278Z,2.90
2023-04-20T00:48:52.315Z,2.75
2023-04-20T00:51:21.549Z,2.63
2023-04-20T00:53:48.841Z,2.63
2023-04-20T00:56:16.823Z,2.88
2023-04-20T00:58:44.700Z,2.67
2023-04-20T01:01:12.873Z,2.80
2023-04-20T01:03:40.537Z,2.95
2023-04-20T01:06:09.310Z,2.92
2023-04-20T01:08:36.191Z,2.40
2023-04-20T01:11:04.377Z,2.85
2023-04-20T01:13:31.614Z,3.20
2023-04-20T01:16:00.580Z,2.63
2023-04-20T01:18:28.309Z,3.22
2023-04-20T01:20:55.498Z,2.85
2023-04-20T01:23:22.911Z,3.00
2023-04-20T01:25:49.846Z,3.00
2023-04-20T01:28:16.767Z,3.15
2023-04-20T01:30:43.903Z,3.17
2023-04-20T01:33:11.166Z,2.85
2023-04-20T01:35:38.492Z,2.97
2023-04-20T01:38:05.492Z,3.40
2023-04-20T01:40:32.509Z,2.67
2023-04-20T01:43:01.418Z,2.72
2023-04-20T01:45:28.697Z,3.75
2023-04-20T01:47:55.927Z,2.90
2023-04-20T01:50:22.963Z,2.83
2023-04-20T01:52:52.031Z,3.10
2023-04-20T01:55:20.218Z,3.42
2023-04-20T01:57:47.286Z,3.20
2023-04-20T02:00:14.491Z,3.05
2023-04-20T02:02:41.908Z,3.08
2023-04-20T02:05:09.623Z,2.50
2023-04-20T02:07:36.921Z,3.30
2023-04-20T02:10:05.058Z,2.58
2023-04-20T02:12:31.925Z,2.92
2023-04-20T02:14:58.709Z,3.03
2023-04-20T02:17:25.840Z,2.83
2023-04-20T02:19:52.745Z,3.30
2023-04-20T02:22:19.733Z,3.35
2023-04-20T02:24:46.723Z,2.97
2023-04-20T02:27:15.096Z,3.30
2023-04-20T02:29:42.061Z,2.92
2023-04-20T02:32:09.063Z,3.13
2023-04-20T02:34:35.893Z,2.95
2023-04-20T02:37:02.977Z,3.00
2023-04-20T02:39:30.015Z,3.10
2023-04-20T02:41:57.302Z,3.03
2023-04-20T02:44:24.191Z,3.58
2023-04-20T02:46:51.703Z,3.13
2023-04-20T02:49:19.682Z,2.67
2023-04-20T02:51:47.292Z,2.78
2023-04-20T02:54:14.405Z,2.60
2023-04-20T02:56:41.890Z,3.83
2023-04-20T02:59:10.678Z,2.78
2023-04-20T03:01:58.072Z,2.67
2023-04-20T03:04:28.137Z,2.90
2023-04-20T03:07:16.641Z,3.33
2023-04-20T03:09:44.547Z,3.03
2023-04-20T03:12:14.702Z,2.35
2023-04-20T03:15:08.103Z,2.90
2023-04-20T03:17:53.512Z,3.28
2023-04-20T03:20:20.939Z,2.90
2023-04-20T03:22:48.279Z,2.63
2023-04-20T03:25:15.566Z,2.40
2023-04-20T03:27:51.848Z,3.17
2023-04-20T03:30:19.448Z,2.55
2023-04-20T03:32:51.556Z,2.35
2023-04-20T03:35:21.089Z,2.97
2023-04-20T03:37:48.631Z,2.38
2023-04-20T03:40:16.050Z,2.38
2023-04-20T03:42:43.109Z,2.10
2023-04-20T03:45:10.682Z,2.20
2023-04-20T03:47:37.757Z,2.65
2023-04-20T03:50:05.834Z,2.40
2023-04-20T03:52:33.976Z,2.40
2023-04-20T03:55:05.036Z,2.40
2023-04-20T03:57:34.033Z,2.05
2023-04-20T04:00:28.192Z,2.10
2023-04-20T04:03:05.474Z,2.05
2023-04-20T04:05:32.996Z,2.15
2023-04-20T04:08:02.042Z,2.40
2023-04-20T04:10:29.693Z,2.05
2023-04-20T04:12:57.131Z,1.98
2023-04-20T04:15:24.285Z,1.95
2023-04-20T04:17:58.448Z,1.80
2023-04-20T04:20:25.630Z,1.80
2023-04-20T04:22:53.246Z,1.80
2023-04-20T04:25:33.901Z,1.73
2023-04-20T04:28:01.096Z,2.15
2023-04-20T04:30:30.816Z,2.33
2023-04-20T04:32:58.961Z,2.00
2023-04-20T04:35:27.621Z,2.00
2023-04-20T04:37:56.020Z,2.20
2023-04-20T04:40:23.182Z,2.28
2023-04-20T04:42:53.477Z,1.90
2023-04-20T04:45:20.431Z,1.42
2023-04-20T04:47:47.413Z,1.75
2023-04-20T04:50:14.377Z,1.73
2023-04-20T04:52:41.309Z,2.42
2023-04-20T04:55:09.852Z,1.42
2023-04-20T04:57:38.821Z,1.45
2023-04-20T05:00:12.757Z,1.85
2023-04-20T05:02:40.873Z,1.38
2023-04-20T05:05:11.276Z,1.98
2023-04-20T05:07:38.664Z,1.40
2023-04-20T05:10:06.883Z,1.73
2023-04-20T05:12:33.895Z,1.60
2023-04-20T05:15:00.736Z,3.42
2023-04-20T05:17:27.766Z,1.80
2023-04-20T05:19:54.595Z,1.83
2023-04-20T05:22:21.480Z,1.33
2023-04-20T05:24:48.237Z,2.10
2023-04-20T05:27:15.370Z,1.60
2023-04-20T05:29:42.501Z,2.10
2023-04-20T05:32:09.491Z,2.88
2023-04-20T05:34:36.336Z,2.60
2023-04-20T05:37:05.003Z,1.95
2023-04-20T05:39:32.190Z,1.95
2023-04-20T05:41:59.175Z,1.58
2023-04-20T05:44:26.166Z,1.80
2023-04-20T05:46:53.643Z,1.85
2023-04-20T05:49:20.702Z,1.48
2023-04-20T05:51:47.615Z,1.50
2023-04-20T05:54:14.439Z,1.52
2023-04-20T05:56:41.673Z,1.80
2023-04-20T05:59:08.890Z,1.98
2023-04-20T06:01:35.805Z,1.30
2023-04-20T06:04:02.909Z,1.20
2023-04-20T06:06:29.777Z,2.10
2023-04-20T06:08:58.428Z,1.60
2023-04-20T06:11:25.829Z,1.48
2023-04-20T06:13:52.728Z,1.30
2023-04-20T06:16:19.721Z,1.70
2023-04-20T06:18:46.399Z,1.75
2023-04-20T06:21:13.300Z,1.23
2023-04-20T06:23:41.254Z,1.92
2023-04-20T06:26:09.727Z,1.33
2023-04-20T06:28:39.845Z,2.03
2023-04-20T06:31:06.880Z,1.45
2023-04-20T06:33:34.246Z,1.52
2023-04-20T06:38:29.126Z,1.10
2023-04-20T06:40:58.823Z,1.80
2023-04-20T06:43:48.161Z,1.63
2023-04-20T06:46:16.839Z,1.08
2023-04-20T06:48:43.481Z,1.40
2023-04-20T06:51:13.036Z,1.20
2023-04-20T06:53:39.757Z,1.90
2023-04-20T06:56:06.872Z,1.90
2023-04-20T07:01:15.757Z,1.30
2023-04-20T07:03:44.248Z,1.80
2023-04-20T07:06:11.809Z,0.98
2023-04-20T07:08:39.942Z,1.40
2023-04-20T07:11:06.774Z,1.40
2023-04-20T07:13:34.145Z,1.25
2023-04-20T07:16:01.166Z,1.33
2023-04-20T07:18:28.174Z,1.27
2023-04-20T07:20:55.280Z,1.27
2023-04-20T07:23:22.273Z,1.20
2023-04-20T07:25:49.167Z,1.42
2023-04-20T07:28:16.112Z,0.88
2023-04-20T07:30:43.112Z,1.40
2023-04-20T07:33:12.720Z,1.58
2023-04-20T07:35:39.809Z,1.88
2023-04-20T07:38:06.492Z,1.52
2023-04-20T07:40:33.229Z,1.90
2023-04-20T10:59:24.939Z,2.33
2023-04-20T11:01:52.367Z,2.55
2023-04-20T11:04:29.064Z,2.85
2023-04-20T11:06:56.837Z,2.50
2023-04-20T11:09:26.721Z,2.58
2023-04-20T11:12:02.086Z,2.85
2023-04-20T11:14:29.212Z,3.38
2023-04-20T11:16:55.993Z,2.33
2023-04-20T11:19:26.083Z,3.03
2023-04-20T11:21:53.197Z,2.60
2023-04-20T11:24:25.026Z,3.17
2023-04-20T11:26:54.477Z,2.75
2023-04-20T11:29:39.116Z,4.00
2023-04-20T11:32:18.465Z,3.20
2023-04-20T11:34:50.327Z,2.33
2023-04-20T11:37:19.920Z,3.15
2023-04-20T11:39:47.070Z,2.75
2023-04-20T11:42:14.003Z,3.10
2023-04-20T11:44:41.695Z,2.75
2023-04-20T11:47:08.395Z,3.30
2023-04-20T11:49:35.403Z,1.60
2023-04-20T11:52:02.294Z,2.85
2023-04-20T11:54:30.847Z,3.30
2023-04-20T11:56:59.314Z,2.28
2023-04-20T11:59:26.262Z,3.00
2023-04-20T12:01:53.373Z,3.33
2023-04-20T12:04:20.500Z,3.17
2023-04-20T12:06:47.879Z,2.70
2023-04-20T12:09:15.258Z,3.25
2023-04-20T12:11:42.475Z,3.25
2023-04-20T12:14:09.254Z,3.58
2023-04-20T12:16:36.226Z,2.20
2023-04-20T12:19:03.458Z,3.60
2023-04-20T12:21:30.365Z,3.97
2023-04-20T12:23:58.626Z,3.55
2023-04-20T12:26:36.934Z,3.10
2023-04-20T12:29:05.251Z,3.17
2023-04-20T12:31:32.397Z,3.30
2023-04-20T12:33:59.416Z,3.35
2023-04-20T12:36:26.370Z,2.35
2023-04-20T12:38:53.950Z,3.50
2023-04-20T12:41:23.430Z,3.35
2023-04-20T12:43:53.178Z,3.63
2023-04-20T12:46:20.175Z,3.30
2023-04-20T12:48:47.209Z,3.35
2023-04-20T12:51:15.353Z,4.70
2023-04-20T12:53:42.396Z,3.75
2023-04-20T12:56:09.413Z,3.90
2023-04-20T12:58:36.245Z,3.05
2023-04-20T13:01:03.923Z,4.13
2023-04-20T13:03:30.984Z,4.60
2023-04-20T13:05:57.974Z,3.70
2023-04-20T13:08:24.881Z,3.58
2023-04-20T13:10:51.833Z,4.40
2023-04-20T13:13:18.665Z,4.53
2023-04-20T13:15:45.520Z,3.13
2023-04-20T13:18:13.674Z,3.78
2023-04-20T13:20:41.178Z,3.83
2023-04-20T13:23:08.203Z,3.80
2023-04-20T13:25:35.534Z,4.25
2023-04-20T13:28:03.261Z,3.65
2023-04-20T13:30:30.256Z,5.13
2023-04-20T13:32:57.098Z,4.60
2023-04-20T13:35:24.550Z,3.45
2023-04-20T13:37:52.721Z,4.30
2023-04-20T13:40:21.156Z,4.43
2023-04-20T13:42:50.194Z,4.57
2023-04-20T13:45:17.152Z,4.03
2023-04-20T13:47:44.616Z,3.90
2023-04-20T13:50:12.741Z,4.60
2023-04-20T13:52:39.442Z,3.40
2023-04-20T13:55:06.542Z,4.75
2023-04-20T13:57:33.403Z,4.68
2023-04-20T14:00:01.148Z,5.00
2023-04-20T14:02:32.637Z,3.85
2023-04-20T14:04:59.477Z,5.28
2023-04-20T14:07:26.762Z,4.68
2023-04-20T14:09:56.798Z,5.03
2023-04-20T14:12:23.628Z,4.38
2023-04-20T14:14:50.407Z,4.22
2023-04-20T14:17:17.133Z,3.95
2023-04-20T14:19:44.026Z,4.38
2023-04-20T14:22:10.867Z,5.38
2023-04-20T14:24:37.913Z,5.30
2023-04-20T14:27:04.632Z,5.40
2023-04-20T14:29:31.594Z,5.53
2023-04-20T14:31:58.312Z,4.88
2023-04-20T14:34:25.611Z,5.38
2023-04-20T14:36:52.306Z,4.35
2023-04-20T14:39:23.324Z,4.28
2023-04-20T14:41:50.146Z,5.28
2023-04-20T14:44:17.226Z,5.60
2023-04-20T14:46:44.088Z,5.32
2023-04-20T14:49:10.934Z,6.10
2023-04-20T14:51:38.045Z,4.82
2023-04-20T14:54:04.974Z,5.50
2023-04-20T14:56:31.801Z,4.75
2023-04-20T14:58:59.787Z,5.45
2023-04-20T15:01:27.670Z,4.85
2023-04-20T15:03:54.705Z,4.47
2023-04-20T15:06:21.923Z,5.47
2023-04-20T15:08:48.719Z,4.07
2023-04-20T15:11:15.686Z,4.60
2023-04-20T15:13:43.758Z,5.18
2023-04-20T15:16:10.722Z,5.65
2023-04-20T15:18:37.701Z,4.20
2023-04-20T15:21:04.997Z,5.85
2023-04-20T15:23:31.697Z,3.33
2023-04-20T15:25:58.923Z,6.20
2023-04-20T15:28:25.873Z,4.13
2023-04-20T15:30:52.833Z,4.43
2023-04-20T15:33:19.957Z,5.30
2023-04-20T15:35:46.719Z,5.70
2023-04-20T15:38:13.778Z,5.35
2023-04-20T15:40:41.570Z,4.68
2023-04-20T15:43:08.440Z,5.70
2023-04-20T15:45:35.772Z,4.00
2023-04-20T15:48:02.801Z,6.18
2023-04-20T15:50:29.672Z,6.20
2023-04-20T15:52:56.487Z,5.20
2023-04-20T15:55:23.210Z,5.18
2023-04-20T15:57:49.989Z,5.20
2023-04-20T16:00:17.187Z,5.82
2023-04-20T16:02:44.063Z,5.57
2023-04-20T16:05:11.524Z,5.60
2023-04-20T16:07:38.342Z,4.97
2023-04-20T16:10:06.846Z,5.57
2023-04-20T16:12:33.609Z,6.80
2023-04-20T16:15:01.730Z,5.40
2023-04-20T16:17:28.841Z,5.32
2023-04-20T16:19:55.776Z,3.95
2023-04-20T16:22:22.685Z,4.90
2023-04-20T16:24:49.531Z,5.28
2023-04-20T16:27:16.665Z,5.60
2023-04-20T16:29:44.111Z,5.20
2023-04-20T16:32:12.067Z,5.00
2023-04-20T16:34:39.108Z,5.25
2023-04-20T16:37:06.203Z,5.72
2023-04-20T16:39:32.944Z,5.57
2023-04-20T16:41:59.660Z,3.47
2023-04-20T16:44:26.341Z,5.50
2023-04-20T16:46:53.450Z,4.90
2023-04-20T16:49:20.418Z,6.18
2023-04-20T16:51:47.832Z,4.85
2023-04-20T16:54:14.707Z,5.80
2023-04-20T16:56:41.585Z,6.18
2023-04-20T16:59:08.355Z,5.47
2023-04-20T17:01:35.234Z,5.38
2023-04-20T17:04:02.157Z,5.88
2023-04-20T17:06:29.725Z,4.90
2023-04-20T17:09:01.433Z,4.97
2023-04-20T17:13:54.771Z,5.32
2023-04-20T17:16:21.447Z,4.57
2023-04-20T17:18:48.217Z,5.05
2023-04-20T17:21:15.103Z,4.97
2023-04-20T17:23:41.822Z,6.22
2023-04-20T17:26:08.834Z,5.57
2023-04-20T17:28:36.079Z,5.53
2023-04-20T17:31:02.853Z,5.43
2023-04-20T17:33:29.835Z,5.13
2023-04-20T17:35:57.089Z,5.70
2023-04-20T17:38:25.015Z,4.72
2023-04-20T17:40:51.834Z,5.50
2023-04-20T17:43:19.755Z,4.88
2023-04-20T17:45:50.316Z,5.28
2023-04-20T17:48:18.187Z,5.88
2023-04-20T17:50:51.526Z,5.78
2023-04-20T17:53:18.312Z,5.95
2023-04-20T17:55:45.105Z,6.20
2023-04-20T17:58:13.039Z,5.97
2023-04-20T18:00:40.051Z,6.25
2023-04-20T18:03:06.784Z,6.03
2023-04-20T18:05:34.009Z,6.28
2023-04-20T18:08:00.930Z,6.25
2023-04-20T18:10:28.164Z,6.15
2023-04-20T18:12:55.491Z,6.57
2023-04-20T18:15:22.360Z,5.47
2023-04-20T18:17:50.202Z,6.88
2023-04-20T18:20:19.384Z,5.93
2023-04-20T18:22:48.441Z,7.45
2023-04-20T18:25:15.324Z,6.32
2023-04-20T18:27:42.324Z,6.30
2023-04-20T18:30:12.239Z,6.10
2023-04-20T18:32:38.895Z,7.05
2023-04-20T18:35:06.372Z,6.47
2023-04-20T18:37:33.157Z,5.78
2023-04-20T18:39:59.937Z,7.05
2023-04-20T18:42:26.753Z,6.15
2023-04-20T18:44:53.626Z,6.82
2023-04-20T18:47:22.599Z,6.63
2023-04-20T18:49:49.555Z,6.75
2023-04-20T18:52:16.233Z,4.55
2023-04-20T18:54:42.941Z,6.88
2023-04-20T18:57:09.726Z,6.68
2023-04-20T18:59:36.354Z,6.88
2023-04-20T19:02:03.132Z,6.60
2023-04-20T19:04:30.141Z,6.38
2023-04-20T19:06:56.828Z,5.70
2023-04-20T19:09:24.116Z,6.10
2023-04-20T19:11:51.173Z,6.72
2023-04-20T19:14:17.955Z,6.65
2023-04-20T19:16:45.062Z,6.65
2023-04-20T19:19:12.133Z,6.90
2023-04-20T19:21:39.150Z,6.80
2023-04-20T19:24:06.312Z,7.10
2023-04-20T19:26:33.152Z,7.53
2023-04-20T19:29:00.059Z,8.38
2023-04-20T19:31:32.231Z,8.38
2023-04-20T19:34:01.361Z,9.05
2023-04-20T19:36:28.330Z,8.85
2023-04-20T19:38:55.129Z,6.97
2023-04-20T19:41:22.269Z,9.48
2023-04-20T19:43:49.001Z,8.55
2023-04-20T19:46:16.990Z,8.45
2023-04-20T19:48:44.057Z,8.23
2023-04-20T19:51:12.054Z,9.10
2023-04-20T19:53:39.446Z,9.60
2023-04-20T19:56:06.738Z,8.45
2023-04-20T19:58:34.699Z,8.60
2023-04-20T20:01:01.758Z,8.57
2023-04-20T20:03:28.850Z,8.60
2023-04-20T20:05:56.196Z,9.77
2023-04-20T20:08:23.344Z,8.38
2023-04-20T20:10:51.975Z,7.93
2023-04-20T20:13:18.959Z,8.80
2023-04-20T20:15:47.259Z,7.90
2023-04-20T20:18:14.247Z,9.45
2023-04-20T20:20:41.518Z,8.82
2023-04-20T20:23:08.299Z,5.63
2023-04-20T20:25:35.484Z,8.80
2023-04-20T20:28:02.680Z,8.57
2023-04-20T20:30:34.767Z,9.18
2023-04-20T20:33:01.969Z,9.32
2023-04-20T20:35:33.487Z,10.00
2023-04-20T20:38:00.500Z,8.50
2023-04-20T20:40:27.440Z,8.77
2023-04-20T20:42:55.207Z,9.40
2023-04-20T20:45:22.550Z,7.18
2023-04-20T20:47:49.889Z,9.10
2023-04-20T20:50:18.626Z,9.98
2023-04-20T20:52:46.068Z,9.80
2023-04-20T20:55:13.446Z,9.68
2023-04-20T20:57:42.635Z,10.00
2023-04-20T21:00:11.473Z,8.65
2023-04-20T21:02:38.772Z,8.77
2023-04-20T21:05:06.523Z,9.73
2023-04-20T21:07:33.336Z,9.90
2023-04-20T21:10:01.664Z,10.77
2023-04-20T21:12:28.685Z,10.98
2023-04-20T21:14:56.967Z,10.07
2023-04-20T21:17:26.232Z,8.82
2023-04-20T21:19:57.162Z,9.77
2023-04-20T21:22:24.169Z,8.50
2023-04-20T21:24:51.010Z,9.07
2023-04-20T21:27:18.857Z,8.93
2023-04-20T21:29:45.456Z,8.48
2023-04-20T21:32:13.296Z,8.15
2023-04-20T21:34:39.971Z,7.93
2023-04-20T21:37:07.088Z,8.63
2023-04-20T21:39:41.441Z,8.25
2023-04-20T21:42:08.152Z,8.82
2023-04-20T21:44:34.934Z,8.95
2023-04-20T21:47:02.772Z,8.48
2023-04-20T21:49:29.757Z,8.57
2023-04-20T21:51:56.826Z,8.55
2023-04-20T21:54:23.669Z,5.78
2023-04-20T21:56:50.367Z,8.48
2023-04-20T21:59:17.387Z,8.57
2023-04-20T22:01:44.708Z,8.60
2023-04-20T22:04:11.663Z,9.23
2023-04-20T22:06:38.406Z,10.30
2023-04-20T22:09:05.177Z,9.65
2023-04-20T22:11:36.643Z,6.47
2023-04-20T22:14:04.273Z,8.88
2023-04-20T22:16:33.981Z,9.18
2023-04-20T22:19:01.571Z,9.05
2023-04-20T22:21:29.611Z,9.85
2023-04-20T22:23:56.390Z,8.30
2023-04-20T22:26:23.589Z,9.25
2023-04-20T22:28:50.722Z,8.80
2023-04-20T22:31:17.541Z,9.20
2023-04-20T22:33:44.530Z,8.90
2023-04-20T22:36:11.419Z,9.52
2023-04-20T22:38:38.436Z,8.15
2023-04-20T22:41:05.314Z,7.72
2023-04-20T22:43:32.298Z,8.75
2023-04-20T22:45:59.365Z,9.00
2023-04-20T22:48:26.213Z,8.25
2023-04-20T22:50:53.535Z,9.38
2023-04-20T22:53:20.917Z,8.82
2023-04-20T22:55:48.032Z,9.10
2023-04-20T22:58:14.821Z,7.32
2023-04-20T23:00:41.737Z,7.03
2023-04-20T23:03:09.246Z,9.02
2023-04-20T23:05:36.290Z,8.52
2023-04-20T23:08:03.122Z,9.40
2023-04-20T23:10:29.963Z,9.20
2023-04-20T23:12:56.898Z,8.90
2023-04-20T23:15:23.701Z,9.43
2023-04-20T23:17:52.424Z,9.02
2023-04-20T23:20:19.227Z,7.55
2023-04-20T23:22:46.123Z,10.00
2023-04-20T23:25:12.958Z,8.43
2023-04-20T23:27:39.884Z,8.52
2023-04-20T23:30:07.172Z,10.40
2023-04-20T23:32:33.994Z,7.35
2023-04-20T23:35:01.460Z,9.50
2023-04-20T23:37:28.489Z,9.02
2023-04-20T23:39:55.357Z,9.27
2023-04-20T23:42:22.084Z,9.00
2023-04-20T23:44:48.869Z,9.95
2023-04-20T23:47:16.305Z,9.88
2023-04-20T23:49:44.487Z,9.48
2023-04-20T23:52:11.446Z,8.50
2023-04-20T23:54:38.608Z,9.48
2023-04-20T23:57:05.396Z,9.82
2023-04-20T23:59:32.193Z,9.77
